createdAt,value
2022-07-31T00:00:33.368Z,544.00
2022-07-31T00:01:28.655Z,537.00
2022-07-31T00:02:23.967Z,541.00
2022-07-31T00:03:19.620Z,539.00
2022-07-31T00:04:14.767Z,537.00
2022-07-31T00:05:10.621Z,542.00
2022-07-31T00:06:05.894Z,538.00
2022-07-31T00:07:01.666Z,540.00
2022-07-31T00:07:56.965Z,538.00
2022-07-31T00:08:52.135Z,545.00
2022-07-31T00:09:53.395Z,544.00
2022-07-31T00:10:44.573Z,546.00
2022-07-31T00:11:38.829Z,542.00
2022-07-31T00:12:34.961Z,544.00
2022-07-31T00:13:58.173Z,542.00
2022-07-31T00:14:26.590Z,546.00
2022-07-31T00:15:20.814Z,549.00
2022-07-31T00:16:17.235Z,551.00
2022-07-31T00:17:11.973Z,547.00
2022-07-31T00:18:07.124Z,543.00
2022-07-31T00:19:03.003Z,550.00
2022-07-31T00:19:58.291Z,546.00
2022-07-31T00:20:53.589Z,548.00
2022-07-31T00:21:48.771Z,546.00
2022-07-31T00:22:43.932Z,544.00
2022-07-31T00:23:40.318Z,541.00
2022-07-31T00:24:35.622Z,550.00
2022-07-31T00:25:31.340Z,540.00
2022-07-31T00:26:26.501Z,546.00
2022-07-31T00:27:21.678Z,546.00
2022-07-31T00:28:17.430Z,551.00
2022-07-31T00:29:12.728Z,544.00
2022-07-31T00:30:08.694Z,550.00
2022-07-31T00:31:03.839Z,548.00
2022-07-31T00:31:59.139Z,545.00
2022-07-31T00:32:55.039Z,542.00
2022-07-31T00:33:50.182Z,542.00
2022-07-31T00:34:45.583Z,543.00
2022-07-31T00:35:41.739Z,543.00
2022-07-31T00:36:36.907Z,547.00
2022-07-31T00:37:32.338Z,544.00
2022-07-31T00:38:27.772Z,543.00
2022-07-31T00:39:24.866Z,539.00
2022-07-31T00:40:20.004Z,539.00
2022-07-31T00:41:15.482Z,537.00
2022-07-31T00:42:11.065Z,539.00
2022-07-31T00:43:06.245Z,534.00
2022-07-31T00:44:01.549Z,537.00
2022-07-31T00:44:56.752Z,536.00
2022-07-31T00:45:58.567Z,533.00
2022-07-31T00:46:47.934Z,538.00
2022-07-31T00:47:41.949Z,541.00
2022-07-31T00:48:36.965Z,539.00
2022-07-31T00:49:37.375Z,538.00
2022-07-31T00:50:28.073Z,543.00
2022-07-31T00:51:23.002Z,540.00
2022-07-31T00:52:18.172Z,533.00
2022-07-31T00:53:13.206Z,541.00
2022-07-31T00:54:08.213Z,539.00
2022-07-31T00:55:03.272Z,537.00
2022-07-31T00:55:58.442Z,538.00
2022-07-31T00:56:53.605Z,540.00
2022-07-31T00:57:52.867Z,539.00
2022-07-31T00:58:48.015Z,541.00
2022-07-31T00:59:43.318Z,543.00
2022-07-31T01:00:38.468Z,540.00
2022-07-31T01:01:33.834Z,544.00
2022-07-31T01:02:28.854Z,543.00
2022-07-31T01:03:23.888Z,536.00
2022-07-31T01:04:18.886Z,540.00
2022-07-31T01:05:13.974Z,536.00
2022-07-31T01:06:09.004Z,541.00
2022-07-31T01:07:04.277Z,540.00
2022-07-31T01:07:59.060Z,536.00
2022-07-31T01:08:54.076Z,538.00
2022-07-31T01:09:49.059Z,539.00
2022-07-31T01:10:44.218Z,543.00
2022-07-31T01:11:39.249Z,544.00
2022-07-31T01:12:34.248Z,540.00
2022-07-31T01:13:29.276Z,537.00
2022-07-31T01:14:24.289Z,545.00
2022-07-31T01:15:20.826Z,539.00
2022-07-31T01:16:15.858Z,539.00
2022-07-31T01:17:11.025Z,536.00
2022-07-31T01:18:06.198Z,534.00
2022-07-31T01:19:01.257Z,537.00
2022-07-31T01:19:56.275Z,540.00
2022-07-31T01:20:51.312Z,541.00
2022-07-31T01:21:46.294Z,543.00
2022-07-31T01:22:41.349Z,540.00
2022-07-31T01:23:36.349Z,539.00
2022-07-31T01:24:31.354Z,535.00
2022-07-31T01:25:26.443Z,533.00
2022-07-31T01:26:21.453Z,540.00
2022-07-31T01:27:16.542Z,540.00
2022-07-31T01:28:11.761Z,539.00
2022-07-31T01:29:06.578Z,541.00
2022-07-31T01:30:05.090Z,541.00
2022-07-31T01:31:24.262Z,536.00
2022-07-31T01:31:56.216Z,540.00
2022-07-31T01:32:51.289Z,542.00
2022-07-31T01:33:46.452Z,540.00
2022-07-31T01:34:41.609Z,539.00
2022-07-31T01:35:38.122Z,546.00
2022-07-31T01:36:33.455Z,541.00
2022-07-31T01:37:29.348Z,546.00
2022-07-31T01:38:24.483Z,547.00
2022-07-31T01:39:19.657Z,545.00
2022-07-31T01:40:15.508Z,551.00
2022-07-31T01:41:10.705Z,548.00
2022-07-31T01:42:06.779Z,546.00
2022-07-31T01:43:01.794Z,546.00
2022-07-31T01:43:56.998Z,543.00
2022-07-31T01:44:53.000Z,548.00
2022-07-31T01:45:48.201Z,547.00
2022-07-31T01:46:43.339Z,544.00
2022-07-31T01:47:39.741Z,545.00
2022-07-31T01:48:35.036Z,545.00
2022-07-31T01:49:30.998Z,546.00
2022-07-31T01:50:42.783Z,545.00
2022-07-31T01:51:22.807Z,543.00
2022-07-31T01:52:17.010Z,542.00
2022-07-31T01:53:12.983Z,556.00
2022-07-31T01:54:08.384Z,543.00
2022-07-31T01:55:03.576Z,552.00
2022-07-31T01:56:03.700Z,548.00
2022-07-31T01:56:54.589Z,556.00
2022-07-31T01:57:50.462Z,550.00
2022-07-31T01:58:45.735Z,547.00
2022-07-31T01:59:44.734Z,541.00
2022-07-31T02:00:36.885Z,547.00
2022-07-31T02:01:32.213Z,542.00
2022-07-31T02:02:27.372Z,546.00
2022-07-31T02:03:43.765Z,546.00
2022-07-31T02:04:20.137Z,545.00
2022-07-31T02:05:14.943Z,542.00
2022-07-31T02:06:10.072Z,540.00
2022-07-31T02:07:05.263Z,537.00
2022-07-31T02:08:01.099Z,547.00
2022-07-31T02:08:56.333Z,540.00
2022-07-31T02:09:57.969Z,545.00
2022-07-31T02:10:48.222Z,548.00
2022-07-31T02:11:54.675Z,544.00
2022-07-31T02:12:39.199Z,547.00
2022-07-31T02:13:34.132Z,549.00
2022-07-31T02:14:29.253Z,541.00
2022-07-31T02:15:24.548Z,550.00
2022-07-31T02:16:20.299Z,551.00
2022-07-31T02:17:15.609Z,548.00
2022-07-31T02:18:11.798Z,548.00
2022-07-31T02:19:06.038Z,553.00
2022-07-31T02:20:01.932Z,549.00
2022-07-31T02:20:57.107Z,550.00
2022-07-31T02:21:52.518Z,556.00
2022-07-31T02:22:48.528Z,548.00
2022-07-31T02:23:43.840Z,547.00
2022-07-31T02:24:39.587Z,544.00
2022-07-31T02:25:34.897Z,554.00
2022-07-31T02:26:30.195Z,541.00
2022-07-31T02:27:58.012Z,552.00
2022-07-31T02:28:21.534Z,548.00
2022-07-31T02:29:20.099Z,550.00
2022-07-31T02:30:11.659Z,550.00
2022-07-31T02:31:06.844Z,546.00
2022-07-31T02:32:03.507Z,549.00
2022-07-31T02:32:58.385Z,555.00
2022-07-31T02:33:53.587Z,559.00
2022-07-31T02:34:49.293Z,549.00
2022-07-31T02:35:45.219Z,550.00
2022-07-31T02:36:39.704Z,550.00
2022-07-31T02:37:36.112Z,551.00
2022-07-31T02:38:31.435Z,545.00
2022-07-31T02:39:30.506Z,549.00
2022-07-31T02:40:22.339Z,550.00
2022-07-31T02:41:18.172Z,549.00
2022-07-31T02:42:13.351Z,554.00
2022-07-31T02:43:09.200Z,550.00
2022-07-31T02:44:04.474Z,549.00
2022-07-31T02:44:59.621Z,536.00
2022-07-31T02:45:54.891Z,538.00
2022-07-31T02:46:50.310Z,542.00
2022-07-31T02:47:45.669Z,539.00
2022-07-31T02:48:40.797Z,535.00
2022-07-31T02:49:37.218Z,534.00
2022-07-31T02:50:32.481Z,542.00
2022-07-31T02:51:27.778Z,540.00
2022-07-31T02:52:24.309Z,538.00
2022-07-31T02:53:19.595Z,541.00
2022-07-31T02:54:14.898Z,538.00
2022-07-31T02:55:10.071Z,535.00
2022-07-31T02:56:05.071Z,538.00
2022-07-31T02:57:00.096Z,535.00
2022-07-31T02:57:55.146Z,538.00
2022-07-31T02:58:50.305Z,536.00
2022-07-31T02:59:45.364Z,532.00
2022-07-31T03:00:40.490Z,534.00
2022-07-31T03:01:35.414Z,533.00
2022-07-31T03:02:34.667Z,532.00
2022-07-31T03:03:26.509Z,536.00
2022-07-31T03:04:20.709Z,534.00
2022-07-31T03:05:15.615Z,540.00
2022-07-31T03:06:10.644Z,537.00
2022-07-31T03:07:05.701Z,536.00
2022-07-31T03:08:00.710Z,539.00
2022-07-31T03:08:55.738Z,538.00
2022-07-31T03:09:50.741Z,545.00
2022-07-31T03:10:45.751Z,535.00
2022-07-31T03:11:40.782Z,538.00
2022-07-31T03:12:35.820Z,536.00
2022-07-31T03:13:30.826Z,537.00
2022-07-31T03:14:26.011Z,542.00
2022-07-31T03:15:22.074Z,537.00
2022-07-31T03:16:16.071Z,539.00
2022-07-31T03:17:13.149Z,540.00
2022-07-31T03:18:11.319Z,540.00
2022-07-31T03:19:03.204Z,541.00
2022-07-31T03:19:58.220Z,539.00
2022-07-31T03:20:53.279Z,537.00
2022-07-31T03:21:48.268Z,538.00
2022-07-31T03:22:43.339Z,541.00
2022-07-31T03:23:38.388Z,536.00
2022-07-31T03:24:33.547Z,543.00
2022-07-31T03:25:28.567Z,542.00
2022-07-31T03:26:23.631Z,540.00
2022-07-31T03:27:18.657Z,536.00
2022-07-31T03:28:14.216Z,540.00
2022-07-31T03:29:43.477Z,542.00
2022-07-31T03:30:06.018Z,532.00
2022-07-31T03:31:00.217Z,538.00
2022-07-31T03:31:56.106Z,538.00
2022-07-31T03:32:51.321Z,530.00
2022-07-31T03:33:46.559Z,540.00
2022-07-31T03:34:42.356Z,538.00
2022-07-31T03:35:42.187Z,533.00
2022-07-31T03:36:34.523Z,537.00
2022-07-31T03:37:28.666Z,543.00
2022-07-31T03:38:39.253Z,537.00
2022-07-31T03:39:21.633Z,539.00
2022-07-31T03:40:15.800Z,535.00
2022-07-31T03:41:11.153Z,535.00
2022-07-31T03:42:07.527Z,533.00
2022-07-31T03:43:03.601Z,531.00
2022-07-31T03:43:58.316Z,539.00
2022-07-31T03:44:53.621Z,540.00
2022-07-31T03:45:48.971Z,535.00
2022-07-31T03:46:44.622Z,542.00
2022-07-31T03:47:39.842Z,541.00
2022-07-31T03:48:35.670Z,535.00
2022-07-31T03:49:30.964Z,538.00
2022-07-31T03:50:26.410Z,536.00
2022-07-31T03:51:22.109Z,538.00
2022-07-31T03:52:17.369Z,543.00
2022-07-31T03:53:12.635Z,538.00
2022-07-31T03:54:09.009Z,540.00
2022-07-31T03:55:04.309Z,538.00
2022-07-31T03:56:00.142Z,547.00
2022-07-31T03:56:55.442Z,540.00
2022-07-31T03:57:50.790Z,540.00
2022-07-31T03:58:51.548Z,534.00
2022-07-31T03:59:47.932Z,535.00
2022-07-31T04:00:38.549Z,537.00
2022-07-31T04:02:09.137Z,530.00
2022-07-31T04:02:31.801Z,538.00
2022-07-31T04:03:24.936Z,540.00
2022-07-31T04:04:20.405Z,541.00
2022-07-31T04:05:15.627Z,535.00
2022-07-31T04:06:11.486Z,542.00
2022-07-31T04:07:06.703Z,537.00
2022-07-31T04:08:02.023Z,536.00
2022-07-31T04:08:57.792Z,542.00
2022-07-31T04:09:53.098Z,543.00
2022-07-31T04:10:48.533Z,541.00
2022-07-31T04:11:44.703Z,538.00
2022-07-31T04:12:40.048Z,544.00
2022-07-31T04:13:35.802Z,541.00
2022-07-31T04:14:31.101Z,544.00
2022-07-31T04:15:26.540Z,542.00
2022-07-31T04:16:21.727Z,540.00
2022-07-31T04:17:17.052Z,539.00
2022-07-31T04:18:12.412Z,543.00
2022-07-31T04:19:07.447Z,540.00
2022-07-31T04:20:02.503Z,542.00
2022-07-31T04:20:57.552Z,541.00
2022-07-31T04:21:52.596Z,544.00
2022-07-31T04:22:49.328Z,539.00
2022-07-31T04:23:42.671Z,537.00
2022-07-31T04:24:38.677Z,535.00
2022-07-31T04:25:32.691Z,532.00
2022-07-31T04:26:27.789Z,537.00
2022-07-31T04:27:22.790Z,541.00
2022-07-31T04:28:17.889Z,548.00
2022-07-31T04:29:12.866Z,539.00
2022-07-31T04:30:07.968Z,537.00
2022-07-31T04:31:03.070Z,540.00
2022-07-31T04:31:58.197Z,543.00
2022-07-31T04:32:53.320Z,545.00
2022-07-31T04:33:50.330Z,539.00
2022-07-31T04:34:44.408Z,538.00
2022-07-31T04:35:38.430Z,540.00
2022-07-31T04:36:33.541Z,533.00
2022-07-31T04:37:28.633Z,544.00
2022-07-31T04:38:23.769Z,539.00
2022-07-31T04:39:18.856Z,536.00
2022-07-31T04:40:13.998Z,534.00
2022-07-31T04:41:09.225Z,541.00
2022-07-31T04:42:04.787Z,539.00
2022-07-31T04:43:00.031Z,534.00
2022-07-31T04:43:55.397Z,538.00
2022-07-31T04:44:50.764Z,538.00
2022-07-31T04:45:46.171Z,536.00
2022-07-31T04:46:41.531Z,535.00
2022-07-31T04:47:37.024Z,537.00
2022-07-31T04:48:32.296Z,543.00
2022-07-31T04:49:27.784Z,541.00
2022-07-31T04:50:23.133Z,542.00
2022-07-31T04:51:18.564Z,540.00
2022-07-31T04:52:13.575Z,538.00
2022-07-31T04:53:08.601Z,544.00
2022-07-31T04:54:03.638Z,539.00
2022-07-31T04:54:58.674Z,548.00
2022-07-31T04:55:53.679Z,543.00
2022-07-31T04:56:48.679Z,539.00
2022-07-31T04:57:43.713Z,541.00
2022-07-31T04:58:38.743Z,538.00
2022-07-31T04:59:59.890Z,539.00
2022-07-31T05:00:29.795Z,536.00
2022-07-31T05:01:23.878Z,542.00
2022-07-31T05:02:18.920Z,541.00
2022-07-31T05:03:13.979Z,535.00
2022-07-31T05:04:08.988Z,537.00
2022-07-31T05:05:04.964Z,541.00
2022-07-31T05:06:00.359Z,537.00
2022-07-31T05:06:55.768Z,550.00
2022-07-31T05:07:51.230Z,549.00
2022-07-31T05:08:46.646Z,537.00
2022-07-31T05:09:42.193Z,531.00
2022-07-31T05:10:37.502Z,539.00
2022-07-31T05:11:32.922Z,543.00
2022-07-31T05:12:28.397Z,537.00
2022-07-31T05:13:23.813Z,543.00
2022-07-31T05:14:19.236Z,545.00
2022-07-31T05:15:14.654Z,539.00
2022-07-31T05:16:10.059Z,537.00
2022-07-31T05:17:05.493Z,535.00
2022-07-31T05:18:01.070Z,542.00
2022-07-31T05:18:56.475Z,539.00
2022-07-31T05:19:51.886Z,540.00
2022-07-31T05:20:47.339Z,548.00
2022-07-31T05:21:53.313Z,545.00
2022-07-31T05:22:39.322Z,547.00
2022-07-31T05:23:33.675Z,548.00
2022-07-31T05:24:33.851Z,545.00
2022-07-31T05:25:25.509Z,545.00
2022-07-31T05:26:19.978Z,547.00
2022-07-31T05:27:19.340Z,549.00
2022-07-31T05:28:14.891Z,548.00
2022-07-31T05:29:10.184Z,547.00
2022-07-31T05:30:05.602Z,547.00
2022-07-31T05:31:01.202Z,542.00
2022-07-31T05:32:00.621Z,544.00
2022-07-31T05:32:52.108Z,541.00
2022-07-31T05:33:47.541Z,544.00
2022-07-31T05:34:42.968Z,553.00
2022-07-31T05:35:38.469Z,557.00
2022-07-31T05:36:34.056Z,557.00
2022-07-31T05:37:29.477Z,554.00
2022-07-31T05:38:24.906Z,552.00
2022-07-31T05:39:20.330Z,555.00
2022-07-31T05:40:15.917Z,552.00
2022-07-31T05:41:10.911Z,551.00
2022-07-31T05:42:06.217Z,551.00
2022-07-31T05:43:00.980Z,555.00
2022-07-31T05:43:56.287Z,547.00
2022-07-31T05:44:51.158Z,551.00
2022-07-31T05:45:46.188Z,550.00
2022-07-31T05:46:41.191Z,550.00
2022-07-31T05:47:40.467Z,551.00
2022-07-31T05:48:31.289Z,551.00
2022-07-31T05:49:26.411Z,551.00
2022-07-31T05:50:23.093Z,552.00
2022-07-31T05:51:18.095Z,553.00
2022-07-31T05:52:13.088Z,549.00
2022-07-31T05:53:08.101Z,572.00
2022-07-31T05:54:03.833Z,559.00
2022-07-31T05:54:59.275Z,558.00
2022-07-31T05:55:54.702Z,548.00
2022-07-31T05:56:50.259Z,547.00
2022-07-31T05:57:45.552Z,553.00
2022-07-31T05:58:40.953Z,553.00
2022-07-31T05:59:36.413Z,551.00
2022-07-31T06:00:31.823Z,554.00
2022-07-31T06:01:27.497Z,555.00
2022-07-31T06:02:22.952Z,546.00
2022-07-31T06:03:19.428Z,564.00
2022-07-31T06:04:14.883Z,559.00
2022-07-31T06:05:10.445Z,555.00
2022-07-31T06:06:05.610Z,556.00
2022-07-31T06:07:01.171Z,552.00
2022-07-31T06:07:56.601Z,551.00
2022-07-31T06:08:52.015Z,551.00
2022-07-31T06:09:47.448Z,554.00
2022-07-31T06:10:44.258Z,553.00
2022-07-31T06:11:39.671Z,553.00
2022-07-31T06:12:35.078Z,551.00
2022-07-31T06:13:30.527Z,553.00
2022-07-31T06:14:26.101Z,563.00
2022-07-31T06:15:21.506Z,567.00
2022-07-31T06:16:16.908Z,564.00
2022-07-31T06:17:12.327Z,567.00
2022-07-31T06:18:07.725Z,564.00
2022-07-31T06:19:03.152Z,564.00
2022-07-31T06:19:58.621Z,564.00
2022-07-31T06:20:54.097Z,558.00
2022-07-31T06:21:49.578Z,563.00
2022-07-31T06:22:45.014Z,560.00
2022-07-31T06:23:40.496Z,560.00
2022-07-31T06:24:35.968Z,560.00
2022-07-31T06:25:32.008Z,562.00
2022-07-31T06:26:31.595Z,569.00
2022-07-31T06:27:30.575Z,563.00
2022-07-31T06:28:29.052Z,562.00
2022-07-31T06:29:18.241Z,577.00
2022-07-31T06:30:12.775Z,566.00
2022-07-31T06:31:08.198Z,561.00
2022-07-31T06:32:03.902Z,568.00
2022-07-31T06:32:59.279Z,563.00
2022-07-31T06:33:54.746Z,566.00
2022-07-31T06:34:50.151Z,563.00
2022-07-31T06:35:45.616Z,563.00
2022-07-31T06:36:40.710Z,557.00
2022-07-31T06:37:35.739Z,559.00
2022-07-31T06:38:30.754Z,555.00
2022-07-31T06:39:54.040Z,555.00
2022-07-31T06:40:21.840Z,561.00
2022-07-31T06:41:15.841Z,555.00
2022-07-31T06:42:10.911Z,554.00
2022-07-31T06:43:06.935Z,555.00
2022-07-31T06:44:01.150Z,554.00
2022-07-31T06:44:56.218Z,562.00
2022-07-31T06:45:52.635Z,517.00
2022-07-31T06:46:49.221Z,512.00
2022-07-31T06:47:41.328Z,514.00
2022-07-31T06:48:36.430Z,510.00
2022-07-31T06:49:31.957Z,511.00
2022-07-31T06:50:26.939Z,503.00
2022-07-31T06:51:31.386Z,497.00
2022-07-31T06:52:18.066Z,493.00
2022-07-31T06:53:12.450Z,501.00
2022-07-31T06:54:07.926Z,500.00
2022-07-31T06:55:03.557Z,499.00
2022-07-31T06:55:59.016Z,498.00
2022-07-31T06:56:54.457Z,496.00
2022-07-31T06:57:49.936Z,505.00
2022-07-31T06:58:45.397Z,502.00
2022-07-31T06:59:41.023Z,495.00
2022-07-31T07:00:36.384Z,496.00
2022-07-31T07:01:31.874Z,494.00
2022-07-31T07:02:27.458Z,494.00
2022-07-31T07:03:22.803Z,491.00
2022-07-31T07:04:18.288Z,501.00
2022-07-31T07:05:13.778Z,501.00
2022-07-31T07:06:08.833Z,496.00
2022-07-31T07:07:03.892Z,506.00
2022-07-31T07:07:58.955Z,495.00
2022-07-31T07:08:54.050Z,503.00
2022-07-31T07:09:49.222Z,501.00
2022-07-31T07:10:44.316Z,497.00
2022-07-31T07:11:39.489Z,497.00
2022-07-31T07:12:36.308Z,498.00
2022-07-31T07:13:46.367Z,502.00
2022-07-31T07:14:27.398Z,494.00
2022-07-31T07:15:21.391Z,502.00
2022-07-31T07:16:17.666Z,505.00
2022-07-31T07:17:13.083Z,496.00
2022-07-31T07:18:08.599Z,502.00
2022-07-31T07:19:04.071Z,505.00
2022-07-31T07:19:59.669Z,504.00
2022-07-31T07:20:55.293Z,504.00
2022-07-31T07:21:50.639Z,505.00
2022-07-31T07:22:46.245Z,500.00
2022-07-31T07:23:41.579Z,506.00
2022-07-31T07:24:37.069Z,509.00
2022-07-31T07:25:33.888Z,502.00
2022-07-31T07:26:29.246Z,508.00
2022-07-31T07:27:24.721Z,508.00
2022-07-31T07:28:30.065Z,507.00
2022-07-31T07:29:16.692Z,510.00
2022-07-31T07:30:11.087Z,513.00
2022-07-31T07:31:06.712Z,515.00
2022-07-31T07:32:02.446Z,514.00
2022-07-31T07:32:57.652Z,513.00
2022-07-31T07:33:53.261Z,510.00
2022-07-31T07:34:48.781Z,504.00
2022-07-31T07:35:45.792Z,508.00
2022-07-31T07:36:40.225Z,506.00
2022-07-31T07:37:39.018Z,503.00
2022-07-31T07:38:30.822Z,508.00
2022-07-31T07:39:25.844Z,509.00
2022-07-31T07:40:20.844Z,503.00
2022-07-31T07:41:18.516Z,503.00
2022-07-31T07:42:10.944Z,506.00
2022-07-31T07:43:05.942Z,504.00
2022-07-31T07:44:01.065Z,515.00
2022-07-31T07:44:56.106Z,502.00
2022-07-31T07:45:51.119Z,505.00
2022-07-31T07:46:46.231Z,513.00
2022-07-31T07:47:53.815Z,514.00
2022-07-31T07:48:37.309Z,515.00
2022-07-31T07:49:31.423Z,508.00
2022-07-31T07:50:27.080Z,505.00
2022-07-31T07:51:21.731Z,511.00
2022-07-31T07:52:17.136Z,513.00
2022-07-31T07:53:12.661Z,467.00
2022-07-31T07:54:08.233Z,462.00
2022-07-31T07:55:03.846Z,463.00
2022-07-31T07:55:59.172Z,468.00
2022-07-31T07:56:54.582Z,457.00
2022-07-31T07:57:50.091Z,463.00
2022-07-31T07:58:45.535Z,464.00
2022-07-31T07:59:41.176Z,468.00
2022-07-31T08:00:36.659Z,472.00
2022-07-31T08:01:32.171Z,471.00
2022-07-31T08:02:27.564Z,463.00
2022-07-31T08:03:48.619Z,464.00
2022-07-31T08:04:19.777Z,467.00
2022-07-31T08:05:14.078Z,470.00
2022-07-31T08:06:09.551Z,470.00
2022-07-31T08:07:05.318Z,468.00
2022-07-31T08:08:00.821Z,473.00
2022-07-31T08:08:56.309Z,467.00
2022-07-31T08:09:51.811Z,461.00
2022-07-31T08:10:47.277Z,460.00
2022-07-31T08:11:42.669Z,462.00
2022-07-31T08:12:38.103Z,463.00
2022-07-31T08:13:34.169Z,462.00
2022-07-31T08:14:29.610Z,462.00
2022-07-31T08:15:25.142Z,460.00
2022-07-31T08:16:20.738Z,461.00
2022-07-31T08:17:16.129Z,459.00
2022-07-31T08:18:11.271Z,460.00
2022-07-31T08:19:06.350Z,463.00
2022-07-31T08:20:01.475Z,459.00
2022-07-31T08:20:56.487Z,457.00
2022-07-31T08:21:55.673Z,461.00
2022-07-31T08:22:51.204Z,461.00
2022-07-31T08:23:46.762Z,464.00
2022-07-31T08:24:42.558Z,458.00
2022-07-31T08:25:38.073Z,458.00
2022-07-31T08:26:33.593Z,464.00
2022-07-31T08:27:40.222Z,464.00
2022-07-31T08:28:26.282Z,461.00
2022-07-31T08:29:27.518Z,465.00
2022-07-31T08:30:17.354Z,463.00
2022-07-31T08:31:12.034Z,460.00
2022-07-31T08:32:08.182Z,457.00
2022-07-31T08:33:03.570Z,463.00
2022-07-31T08:33:59.529Z,461.00
2022-07-31T08:34:55.037Z,460.00
2022-07-31T08:35:50.804Z,460.00
2022-07-31T08:36:46.334Z,437.00
2022-07-31T08:37:52.612Z,432.00
2022-07-31T08:38:38.358Z,436.00
2022-07-31T08:39:32.922Z,437.00
2022-07-31T08:40:28.585Z,435.00
2022-07-31T08:41:24.119Z,426.00
2022-07-31T08:42:19.668Z,422.00
2022-07-31T08:44:12.666Z,449.00
2022-07-31T08:45:07.396Z,453.00
2022-07-31T08:46:03.015Z,458.00
2022-07-31T08:46:58.491Z,438.00
2022-07-31T08:47:54.150Z,432.00
2022-07-31T08:48:49.605Z,428.00
2022-07-31T08:49:45.404Z,430.00
2022-07-31T08:50:40.909Z,417.00
2022-07-31T08:51:51.236Z,416.00
2022-07-31T08:52:33.117Z,422.00
2022-07-31T08:53:27.583Z,410.00
2022-07-31T08:54:23.100Z,406.00
2022-07-31T08:55:55.523Z,414.00
2022-07-31T08:56:16.108Z,421.00
2022-07-31T08:57:12.868Z,423.00
2022-07-31T08:58:06.298Z,423.00
2022-07-31T08:59:01.876Z,431.00
2022-07-31T08:59:57.528Z,419.00
2022-07-31T09:00:52.969Z,411.00
2022-07-31T09:01:48.761Z,408.00
2022-07-31T09:02:44.156Z,406.00
2022-07-31T09:03:39.665Z,407.00
2022-07-31T09:04:35.526Z,413.00
2022-07-31T09:05:41.913Z,405.00
2022-07-31T09:06:27.514Z,408.00
2022-07-31T09:07:21.958Z,409.00
2022-07-31T09:08:17.780Z,408.00
2022-07-31T09:09:13.300Z,410.00
2022-07-31T09:10:08.774Z,420.00
2022-07-31T09:11:06.159Z,419.00
2022-07-31T09:12:00.805Z,414.00
2022-07-31T09:12:56.537Z,417.00
2022-07-31T09:14:01.472Z,414.00
2022-07-31T09:14:48.949Z,413.00
2022-07-31T09:15:43.496Z,410.00
2022-07-31T09:16:39.445Z,411.00
2022-07-31T09:17:34.998Z,413.00
2022-07-31T09:18:30.537Z,409.00
2022-07-31T09:19:51.626Z,414.00
2022-07-31T09:20:22.451Z,423.00
2022-07-31T09:21:17.137Z,418.00
2022-07-31T09:22:12.595Z,411.00
2022-07-31T09:23:08.067Z,410.00
2022-07-31T09:24:03.789Z,413.00
2022-07-31T09:24:59.334Z,412.00
2022-07-31T09:25:55.028Z,412.00
2022-07-31T09:26:50.513Z,426.00
2022-07-31T09:27:46.369Z,408.00
2022-07-31T09:28:41.706Z,414.00
2022-07-31T09:29:37.112Z,410.00
2022-07-31T09:30:32.813Z,408.00
2022-07-31T09:31:28.205Z,411.00
2022-07-31T09:32:23.644Z,406.00
2022-07-31T09:33:19.941Z,409.00
2022-07-31T09:34:15.497Z,411.00
2022-07-31T09:35:11.363Z,408.00
2022-07-31T09:36:06.849Z,404.00
2022-07-31T09:37:02.559Z,411.00
2022-07-31T09:37:58.074Z,409.00
2022-07-31T09:38:53.643Z,413.00
2022-07-31T09:39:52.396Z,408.00
2022-07-31T09:40:55.355Z,404.00
2022-07-31T09:41:58.267Z,404.00
2022-07-31T09:42:36.434Z,405.00
2022-07-31T09:43:31.505Z,407.00
2022-07-31T09:44:26.228Z,407.00
2022-07-31T09:45:20.616Z,410.00
2022-07-31T09:46:15.778Z,409.00
2022-07-31T09:47:10.868Z,412.00
2022-07-31T09:48:05.890Z,411.00
2022-07-31T09:49:00.967Z,411.00
2022-07-31T09:49:56.016Z,412.00
2022-07-31T09:50:51.090Z,412.00
2022-07-31T09:51:46.139Z,411.00
2022-07-31T09:52:41.159Z,410.00
2022-07-31T09:53:39.288Z,413.00
2022-07-31T09:54:32.378Z,411.00
2022-07-31T09:55:26.497Z,411.00
2022-07-31T09:56:21.539Z,409.00
2022-07-31T09:57:16.999Z,417.00
2022-07-31T09:58:13.532Z,405.00
2022-07-31T09:59:08.887Z,411.00
2022-07-31T10:00:04.647Z,412.00
2022-07-31T10:01:00.140Z,404.00
2022-07-31T10:01:55.467Z,407.00
2022-07-31T10:02:51.327Z,407.00
2022-07-31T10:03:46.795Z,406.00
2022-07-31T10:04:42.616Z,411.00
2022-07-31T10:05:38.109Z,409.00
2022-07-31T10:06:33.440Z,416.00
2022-07-31T10:07:32.565Z,410.00
2022-07-31T10:08:24.863Z,415.00
2022-07-31T10:09:20.313Z,412.00
2022-07-31T10:10:16.846Z,422.00
2022-07-31T10:11:16.690Z,423.00
2022-07-31T10:12:08.054Z,427.00
2022-07-31T10:13:03.526Z,432.00
2022-07-31T10:13:58.957Z,426.00
2022-07-31T10:14:54.689Z,428.00
2022-07-31T10:15:50.394Z,425.00
2022-07-31T10:16:46.126Z,429.00
2022-07-31T10:17:41.444Z,425.00
2022-07-31T10:18:38.601Z,422.00
2022-07-31T10:19:32.569Z,433.00
2022-07-31T10:20:28.000Z,430.00
2022-07-31T10:21:23.441Z,431.00
2022-07-31T10:22:19.854Z,421.00
2022-07-31T10:23:15.298Z,429.00
2022-07-31T10:24:11.142Z,429.00
2022-07-31T10:25:06.662Z,428.00
2022-07-31T10:26:02.105Z,433.00
2022-07-31T10:27:00.728Z,432.00
2022-07-31T10:27:53.253Z,432.00
2022-07-31T10:28:49.022Z,430.00
2022-07-31T10:29:44.469Z,447.00
2022-07-31T10:30:40.111Z,438.00
2022-07-31T10:31:35.830Z,448.00
2022-07-31T10:32:31.261Z,434.00
2022-07-31T10:33:43.736Z,428.00
2022-07-31T10:34:23.973Z,432.00
2022-07-31T10:35:18.605Z,435.00
2022-07-31T10:36:14.465Z,427.00
2022-07-31T10:37:11.207Z,432.00
2022-07-31T10:38:05.415Z,427.00
2022-07-31T10:39:00.480Z,429.00
2022-07-31T10:39:55.492Z,431.00
2022-07-31T10:40:50.562Z,430.00
2022-07-31T10:41:45.617Z,430.00
2022-07-31T10:42:40.627Z,434.00
2022-07-31T10:43:41.250Z,435.00
2022-07-31T10:44:38.624Z,430.00
2022-07-31T10:45:32.146Z,427.00
2022-07-31T10:46:27.991Z,427.00
2022-07-31T10:47:23.319Z,433.00
2022-07-31T10:48:18.769Z,426.00
2022-07-31T10:49:15.137Z,431.00
2022-07-31T10:50:10.695Z,431.00
2022-07-31T10:51:06.512Z,425.00
2022-07-31T10:52:01.966Z,433.00
2022-07-31T10:53:00.620Z,428.00
2022-07-31T10:53:55.256Z,418.00
2022-07-31T10:54:48.519Z,426.00
2022-07-31T10:55:44.243Z,426.00
2022-07-31T10:56:39.684Z,425.00
2022-07-31T10:57:35.143Z,434.00
2022-07-31T10:58:31.585Z,434.00
2022-07-31T10:59:26.097Z,431.00
2022-07-31T11:00:21.560Z,426.00
2022-07-31T11:01:17.654Z,425.00
2022-07-31T11:02:11.676Z,429.00
2022-07-31T11:03:06.736Z,429.00
2022-07-31T11:04:02.783Z,438.00
2022-07-31T11:04:59.146Z,439.00
2022-07-31T11:06:01.651Z,438.00
2022-07-31T11:06:47.785Z,431.00
2022-07-31T11:07:42.173Z,434.00
2022-07-31T11:08:37.190Z,428.00
2022-07-31T11:09:32.294Z,432.00
2022-07-31T11:10:27.327Z,428.00
2022-07-31T11:11:25.990Z,427.00
2022-07-31T11:12:17.505Z,430.00
2022-07-31T11:13:12.554Z,429.00
2022-07-31T11:14:07.585Z,426.00
2022-07-31T11:15:02.658Z,430.00
2022-07-31T11:15:57.706Z,429.00
2022-07-31T11:16:52.797Z,435.00
2022-07-31T11:18:22.107Z,430.00
2022-07-31T11:18:44.423Z,431.00
2022-07-31T11:19:41.145Z,425.00
2022-07-31T11:20:33.795Z,421.00
2022-07-31T11:21:38.559Z,431.00
2022-07-31T11:22:31.713Z,425.00
2022-07-31T11:23:20.093Z,427.00
2022-07-31T11:24:14.198Z,433.00
2022-07-31T11:25:09.256Z,424.00
2022-07-31T11:26:04.276Z,430.00
2022-07-31T11:27:03.641Z,425.00
2022-07-31T11:27:58.367Z,425.00
2022-07-31T11:28:53.441Z,428.00
2022-07-31T11:29:58.784Z,425.00
2022-07-31T11:30:44.494Z,432.00
2022-07-31T11:31:38.624Z,430.00
2022-07-31T11:32:33.656Z,430.00